sensor_id;sensor_type;location;lat;lon;timestamp;P1;durP1;ratioP1;P2;durP2;ratioP2
35442;SDS011;21561;55.654;37.592;2023-01-23T00:01:13;51.20;;;18.50;;
35442;SDS011;21561;55.654;37.592;2023-01-23T00:03:41;46.53;;;17.85;;
35442;SDS011;21561;55.654;37.592;2023-01-23T00:06:09;44.17;;;17.10;;
35442;SDS011;21561;55.654;37.592;2023-01-23T00:08:39;50.45;;;19.88;;
35442;SDS011;21561;55.654;37.592;2023-01-23T00:11:08;53.10;;;19.55;;
35442;SDS011;21561;55.654;37.592;2023-01-23T00:13:37;50.47;;;18.73;;
35442;SDS011;21561;55.654;37.592;2023-01-23T00:16:05;49.67;;;20.25;;
35442;SDS011;21561;55.654;37.592;2023-01-23T00:18:34;47.95;;;19.30;;
35442;SDS011;21561;55.654;37.592;2023-01-23T00:21:05;47.28;;;20.15;;
35442;SDS011;21561;55.654;37.592;2023-01-23T00:23:33;53.72;;;19.73;;
35442;SDS011;21561;55.654;37.592;2023-01-23T00:26:01;50.38;;;19.70;;
35442;SDS011;21561;55.654;37.592;2023-01-23T00:28:30;49.85;;;18.40;;
35442;SDS011;21561;55.654;37.592;2023-01-23T00:31:08;48.38;;;19.50;;
35442;SDS011;21561;55.654;37.592;2023-01-23T00:33:38;45.05;;;18.00;;
35442;SDS011;21561;55.654;37.592;2023-01-23T00:36:05;48.45;;;19.55;;
35442;SDS011;21561;55.654;37.592;2023-01-23T00:38:33;42.20;;;16.40;;
35442;SDS011;21561;55.654;37.592;2023-01-23T00:41:00;43.53;;;16.60;;
35442;SDS011;21561;55.654;37.592;2023-01-23T00:43:28;46.38;;;17.23;;
35442;SDS011;21561;55.654;37.592;2023-01-23T00:45:56;44.33;;;17.15;;
35442;SDS011;21561;55.654;37.592;2023-01-23T00:48:23;44.45;;;18.38;;
35442;SDS011;21561;55.654;37.592;2023-01-23T00:50:50;48.63;;;18.77;;
35442;SDS011;21561;55.654;37.592;2023-01-23T00:53:17;43.97;;;16.67;;
35442;SDS011;21561;55.654;37.592;2023-01-23T00:55:44;42.28;;;18.05;;
35442;SDS011;21561;55.654;37.592;2023-01-23T00:58:11;43.92;;;17.15;;
35442;SDS011;21561;55.654;37.592;2023-01-23T01:00:38;41.33;;;15.40;;
35442;SDS011;21561;55.654;37.592;2023-01-23T01:03:05;37.20;;;14.45;;
35442;SDS011;21561;55.654;37.592;2023-01-23T01:05:33;41.97;;;15.55;;
35442;SDS011;21561;55.654;37.592;2023-01-23T01:08:00;40.30;;;16.05;;
35442;SDS011;21561;55.654;37.592;2023-01-23T01:10:26;38.75;;;16.75;;
35442;SDS011;21561;55.654;37.592;2023-01-23T01:12:55;43.78;;;17.10;;
35442;SDS011;21561;55.654;37.592;2023-01-23T01:15:22;40.15;;;16.38;;
35442;SDS011;21561;55.654;37.592;2023-01-23T01:17:49;41.28;;;15.60;;
35442;SDS011;21561;55.654;37.592;2023-01-23T01:20:19;36.97;;;15.48;;
35442;SDS011;21561;55.654;37.592;2023-01-23T01:22:49;42.03;;;16.05;;
35442;SDS011;21561;55.654;37.592;2023-01-23T01:25:16;42.45;;;16.25;;
35442;SDS011;21561;55.654;37.592;2023-01-23T01:27:43;42.47;;;16.38;;
35442;SDS011;21561;55.654;37.592;2023-01-23T01:30:10;37.40;;;15.65;;
35442;SDS011;21561;55.654;37.592;2023-01-23T01:32:38;37.65;;;15.88;;
35442;SDS011;21561;55.654;37.592;2023-01-23T01:35:06;38.63;;;15.63;;
35442;SDS011;21561;55.654;37.592;2023-01-23T01:37:35;39.25;;;16.25;;
35442;SDS011;21561;55.654;37.592;2023-01-23T01:40:04;41.42;;;16.77;;
35442;SDS011;21561;55.654;37.592;2023-01-23T01:43:07;43.97;;;16.02;;
35442;SDS011;21561;55.654;37.592;2023-01-23T01:48:30;39.70;;;16.75;;
35442;SDS011;21561;55.654;37.592;2023-01-23T01:51:00;40.15;;;15.25;;
35442;SDS011;21561;55.654;37.592;2023-01-23T01:53:35;36.92;;;15.55;;
35442;SDS011;21561;55.654;37.592;2023-01-23T01:56:03;36.97;;;14.50;;
35442;SDS011;21561;55.654;37.592;2023-01-23T01:58:33;37.63;;;15.15;;
35442;SDS011;21561;55.654;37.592;2023-01-23T02:01:00;40.50;;;15.77;;
35442;SDS011;21561;55.654;37.592;2023-01-23T02:03:27;37.63;;;14.88;;
35442;SDS011;21561;55.654;37.592;2023-01-23T02:05:54;31.48;;;12.30;;
35442;SDS011;21561;55.654;37.592;2023-01-23T02:11:12;30.10;;;12.02;;
35442;SDS011;21561;55.654;37.592;2023-01-23T02:13:40;32.03;;;12.15;;
35442;SDS011;21561;55.654;37.592;2023-01-23T02:16:09;31.20;;;12.32;;
35442;SDS011;21561;55.654;37.592;2023-01-23T02:18:45;32.13;;;12.98;;
35442;SDS011;21561;55.654;37.592;2023-01-23T02:21:15;26.85;;;10.15;;
35442;SDS011;21561;55.654;37.592;2023-01-23T02:26:34;30.15;;;11.98;;
35442;SDS011;21561;55.654;37.592;2023-01-23T02:29:07;34.53;;;13.43;;
35442;SDS011;21561;55.654;37.592;2023-01-23T02:31:34;34.05;;;13.07;;
35442;SDS011;21561;55.654;37.592;2023-01-23T02:34:03;32.70;;;13.70;;
35442;SDS011;21561;55.654;37.592;2023-01-23T02:36:32;37.97;;;14.27;;
35442;SDS011;21561;55.654;37.592;2023-01-23T02:39:07;32.20;;;12.90;;
35442;SDS011;21561;55.654;37.592;2023-01-23T02:41:37;34.58;;;12.05;;
35442;SDS011;21561;55.654;37.592;2023-01-23T02:44:17;30.02;;;11.48;;
35442;SDS011;21561;55.654;37.592;2023-01-23T02:46:45;33.53;;;12.40;;
35442;SDS011;21561;55.654;37.592;2023-01-23T02:49:12;31.58;;;12.00;;
35442;SDS011;21561;55.654;37.592;2023-01-23T02:51:39;33.63;;;12.43;;
35442;SDS011;21561;55.654;37.592;2023-01-23T02:54:05;33.53;;;12.05;;
35442;SDS011;21561;55.654;37.592;2023-01-23T02:56:32;35.15;;;12.35;;
35442;SDS011;21561;55.654;37.592;2023-01-23T02:58:59;34.97;;;12.88;;
35442;SDS011;21561;55.654;37.592;2023-01-23T03:01:45;30.48;;;12.02;;
35442;SDS011;21561;55.654;37.592;2023-01-23T03:04:12;31.95;;;12.18;;
35442;SDS011;21561;55.654;37.592;2023-01-23T03:06:38;36.65;;;13.77;;
35442;SDS011;21561;55.654;37.592;2023-01-23T03:09:09;36.03;;;12.75;;
35442;SDS011;21561;55.654;37.592;2023-01-23T03:11:39;35.78;;;12.68;;
35442;SDS011;21561;55.654;37.592;2023-01-23T03:14:08;33.17;;;11.98;;
35442;SDS011;21561;55.654;37.592;2023-01-23T03:16:36;35.15;;;12.82;;
35442;SDS011;21561;55.654;37.592;2023-01-23T03:19:04;32.72;;;11.80;;
35442;SDS011;21561;55.654;37.592;2023-01-23T03:21:35;32.22;;;12.13;;
35442;SDS011;21561;55.654;37.592;2023-01-23T03:24:09;32.92;;;11.23;;
35442;SDS011;21561;55.654;37.592;2023-01-23T03:26:38;34.15;;;12.55;;
35442;SDS011;21561;55.654;37.592;2023-01-23T03:29:05;30.60;;;11.63;;
35442;SDS011;21561;55.654;37.592;2023-01-23T03:31:51;37.03;;;12.30;;
35442;SDS011;21561;55.654;37.592;2023-01-23T03:34:18;33.42;;;12.02;;
35442;SDS011;21561;55.654;37.592;2023-01-23T03:36:47;33.55;;;11.57;;
35442;SDS011;21561;55.654;37.592;2023-01-23T03:39:14;33.55;;;11.77;;
35442;SDS011;21561;55.654;37.592;2023-01-23T03:41:59;41.78;;;13.68;;
35442;SDS011;21561;55.654;37.592;2023-01-23T03:44:26;41.78;;;13.35;;
35442;SDS011;21561;55.654;37.592;2023-01-23T03:46:53;42.40;;;13.98;;
35442;SDS011;21561;55.654;37.592;2023-01-23T03:49:19;40.22;;;14.82;;
35442;SDS011;21561;55.654;37.592;2023-01-23T03:51:46;41.95;;;15.05;;
35442;SDS011;21561;55.654;37.592;2023-01-23T03:54:14;44.47;;;16.75;;
35442;SDS011;21561;55.654;37.592;2023-01-23T03:56:41;46.78;;;16.98;;
35442;SDS011;21561;55.654;37.592;2023-01-23T03:59:08;48.22;;;17.88;;
35442;SDS011;21561;55.654;37.592;2023-01-23T04:01:35;53.13;;;18.45;;
35442;SDS011;21561;55.654;37.592;2023-01-23T04:04:02;56.70;;;18.85;;
35442;SDS011;21561;55.654;37.592;2023-01-23T04:06:29;56.63;;;18.88;;
35442;SDS011;21561;55.654;37.592;2023-01-23T04:08:56;58.50;;;20.85;;
35442;SDS011;21561;55.654;37.592;2023-01-23T04:11:23;50.13;;;18.85;;
35442;SDS011;21561;55.654;37.592;2023-01-23T04:13:52;56.00;;;16.60;;
35442;SDS011;21561;55.654;37.592;2023-01-23T04:16:19;47.13;;;16.80;;
35442;SDS011;21561;55.654;37.592;2023-01-23T04:18:50;39.90;;;15.50;;
35442;SDS011;21561;55.654;37.592;2023-01-23T04:21:17;39.47;;;14.23;;
35442;SDS011;21561;55.654;37.592;2023-01-23T04:23:44;35.63;;;13.90;;
35442;SDS011;21561;55.654;37.592;2023-01-23T04:26:11;39.60;;;14.63;;
35442;SDS011;21561;55.654;37.592;2023-01-23T04:28:38;38.97;;;15.23;;
35442;SDS011;21561;55.654;37.592;2023-01-23T04:31:05;40.78;;;14.82;;
35442;SDS011;21561;55.654;37.592;2023-01-23T04:33:34;38.47;;;14.32;;
35442;SDS011;21561;55.654;37.592;2023-01-23T04:36:03;39.88;;;15.90;;
35442;SDS011;21561;55.654;37.592;2023-01-23T04:38:31;39.00;;;12.65;;
35442;SDS011;21561;55.654;37.592;2023-01-23T04:40:59;35.92;;;13.68;;
35442;SDS011;21561;55.654;37.592;2023-01-23T04:43:26;37.45;;;13.05;;
35442;SDS011;21561;55.654;37.592;2023-01-23T04:45:53;31.92;;;12.75;;
35442;SDS011;21561;55.654;37.592;2023-01-23T04:48:22;32.58;;;11.95;;
35442;SDS011;21561;55.654;37.592;2023-01-23T04:50:50;30.35;;;11.13;;
35442;SDS011;21561;55.654;37.592;2023-01-23T04:53:17;27.52;;;10.63;;
35442;SDS011;21561;55.654;37.592;2023-01-23T04:55:47;30.27;;;10.98;;
35442;SDS011;21561;55.654;37.592;2023-01-23T04:58:15;25.50;;;9.75;;
35442;SDS011;21561;55.654;37.592;2023-01-23T05:00:43;28.85;;;10.02;;
35442;SDS011;21561;55.654;37.592;2023-01-23T05:03:10;26.35;;;10.23;;
35442;SDS011;21561;55.654;37.592;2023-01-23T05:05:37;29.17;;;10.48;;
35442;SDS011;21561;55.654;37.592;2023-01-23T05:08:04;28.27;;;10.07;;
35442;SDS011;21561;55.654;37.592;2023-01-23T05:10:31;29.63;;;10.55;;
35442;SDS011;21561;55.654;37.592;2023-01-23T05:12:58;30.17;;;11.30;;
35442;SDS011;21561;55.654;37.592;2023-01-23T05:15:25;29.60;;;10.63;;
35442;SDS011;21561;55.654;37.592;2023-01-23T05:17:52;25.73;;;9.90;;
35442;SDS011;21561;55.654;37.592;2023-01-23T05:20:18;28.40;;;11.00;;
35442;SDS011;21561;55.654;37.592;2023-01-23T05:22:46;27.08;;;10.40;;
35442;SDS011;21561;55.654;37.592;2023-01-23T05:25:20;28.23;;;10.23;;
35442;SDS011;21561;55.654;37.592;2023-01-23T05:27:48;30.02;;;11.40;;
35442;SDS011;21561;55.654;37.592;2023-01-23T05:30:15;31.17;;;12.00;;
35442;SDS011;21561;55.654;37.592;2023-01-23T05:32:43;32.08;;;13.63;;
35442;SDS011;21561;55.654;37.592;2023-01-23T05:35:10;35.92;;;14.30;;
35442;SDS011;21561;55.654;37.592;2023-01-23T05:37:37;35.85;;;15.02;;
35442;SDS011;21561;55.654;37.592;2023-01-23T05:40:04;34.30;;;14.88;;
35442;SDS011;21561;55.654;37.592;2023-01-23T05:42:36;32.90;;;14.25;;
35442;SDS011;21561;55.654;37.592;2023-01-23T05:45:02;32.65;;;13.68;;
35442;SDS011;21561;55.654;37.592;2023-01-23T05:47:30;35.28;;;13.60;;
35442;SDS011;21561;55.654;37.592;2023-01-23T05:49:57;34.72;;;13.93;;
35442;SDS011;21561;55.654;37.592;2023-01-23T05:52:24;32.92;;;13.15;;
35442;SDS011;21561;55.654;37.592;2023-01-23T05:54:51;31.33;;;12.93;;
35442;SDS011;21561;55.654;37.592;2023-01-23T05:57:17;31.95;;;12.65;;
35442;SDS011;21561;55.654;37.592;2023-01-23T05:59:44;30.00;;;12.15;;
35442;SDS011;21561;55.654;37.592;2023-01-23T06:02:11;29.83;;;11.80;;
35442;SDS011;21561;55.654;37.592;2023-01-23T06:04:38;28.77;;;11.73;;
35442;SDS011;21561;55.654;37.592;2023-01-23T06:07:06;31.85;;;12.50;;
35442;SDS011;21561;55.654;37.592;2023-01-23T06:09:38;29.25;;;12.50;;
35442;SDS011;21561;55.654;37.592;2023-01-23T06:12:05;30.15;;;11.70;;
35442;SDS011;21561;55.654;37.592;2023-01-23T06:14:32;27.77;;;10.98;;
35442;SDS011;21561;55.654;37.592;2023-01-23T06:16:59;27.08;;;10.27;;
35442;SDS011;21561;55.654;37.592;2023-01-23T06:19:26;27.48;;;10.25;;
35442;SDS011;21561;55.654;37.592;2023-01-23T06:21:52;29.80;;;10.15;;
35442;SDS011;21561;55.654;37.592;2023-01-23T06:24:19;25.27;;;10.05;;
35442;SDS011;21561;55.654;37.592;2023-01-23T06:26:46;24.42;;;10.32;;
35442;SDS011;21561;55.654;37.592;2023-01-23T06:29:13;26.65;;;10.20;;
35442;SDS011;21561;55.654;37.592;2023-01-23T06:31:39;24.40;;;10.27;;
35442;SDS011;21561;55.654;37.592;2023-01-23T06:34:06;38.72;;;16.15;;
35442;SDS011;21561;55.654;37.592;2023-01-23T06:36:33;24.10;;;9.45;;
35442;SDS011;21561;55.654;37.592;2023-01-23T06:39:01;30.35;;;10.82;;
35442;SDS011;21561;55.654;37.592;2023-01-23T06:41:28;25.98;;;9.68;;
35442;SDS011;21561;55.654;37.592;2023-01-23T06:43:55;27.75;;;10.68;;
35442;SDS011;21561;55.654;37.592;2023-01-23T06:46:22;26.65;;;10.15;;
35442;SDS011;21561;55.654;37.592;2023-01-23T06:48:49;27.38;;;10.73;;
35442;SDS011;21561;55.654;37.592;2023-01-23T06:51:19;27.75;;;10.38;;
35442;SDS011;21561;55.654;37.592;2023-01-23T06:53:46;27.65;;;10.45;;
35442;SDS011;21561;55.654;37.592;2023-01-23T06:56:13;28.45;;;11.18;;
35442;SDS011;21561;55.654;37.592;2023-01-23T06:58:42;29.05;;;10.73;;
35442;SDS011;21561;55.654;37.592;2023-01-23T07:01:12;27.40;;;10.02;;
35442;SDS011;21561;55.654;37.592;2023-01-23T07:03:44;25.05;;;9.75;;
35442;SDS011;21561;55.654;37.592;2023-01-23T07:06:11;26.05;;;9.52;;
35442;SDS011;21561;55.654;37.592;2023-01-23T07:08:39;23.60;;;9.18;;
35442;SDS011;21561;55.654;37.592;2023-01-23T07:11:06;25.77;;;8.80;;
35442;SDS011;21561;55.654;37.592;2023-01-23T07:13:34;27.60;;;10.38;;
35442;SDS011;21561;55.654;37.592;2023-01-23T07:16:01;25.85;;;8.70;;
35442;SDS011;21561;55.654;37.592;2023-01-23T07:18:27;26.48;;;9.27;;
35442;SDS011;21561;55.654;37.592;2023-01-23T07:20:55;25.23;;;9.85;;
35442;SDS011;21561;55.654;37.592;2023-01-23T07:23:22;24.83;;;10.57;;
35442;SDS011;21561;55.654;37.592;2023-01-23T07:25:49;27.75;;;10.75;;
35442;SDS011;21561;55.654;37.592;2023-01-23T07:28:16;27.63;;;9.88;;
35442;SDS011;21561;55.654;37.592;2023-01-23T07:30:43;22.40;;;8.23;;
35442;SDS011;21561;55.654;37.592;2023-01-23T07:33:10;27.92;;;9.43;;
35442;SDS011;21561;55.654;37.592;2023-01-23T07:35:38;25.17;;;8.48;;
35442;SDS011;21561;55.654;37.592;2023-01-23T07:38:05;22.27;;;8.15;;
35442;SDS011;21561;55.654;37.592;2023-01-23T07:40:32;22.25;;;8.10;;
35442;SDS011;21561;55.654;37.592;2023-01-23T07:42:59;20.42;;;7.57;;
35442;SDS011;21561;55.654;37.592;2023-01-23T07:45:26;21.48;;;7.43;;
35442;SDS011;21561;55.654;37.592;2023-01-23T07:47:52;24.75;;;8.10;;
35442;SDS011;21561;55.654;37.592;2023-01-23T07:50:19;22.92;;;8.30;;
35442;SDS011;21561;55.654;37.592;2023-01-23T07:52:46;23.45;;;8.43;;
35442;SDS011;21561;55.654;37.592;2023-01-23T07:55:13;21.73;;;8.20;;
35442;SDS011;21561;55.654;37.592;2023-01-23T07:57:40;20.58;;;6.75;;
35442;SDS011;21561;55.654;37.592;2023-01-23T08:00:08;23.67;;;7.35;;
35442;SDS011;21561;55.654;37.592;2023-01-23T08:02:36;25.45;;;8.35;;
35442;SDS011;21561;55.654;37.592;2023-01-23T08:05:04;21.92;;;7.85;;
35442;SDS011;21561;55.654;37.592;2023-01-23T08:07:31;25.13;;;7.63;;
35442;SDS011;21561;55.654;37.592;2023-01-23T08:09:58;20.40;;;6.68;;
35442;SDS011;21561;55.654;37.592;2023-01-23T08:12:28;24.45;;;7.90;;
35442;SDS011;21561;55.654;37.592;2023-01-23T08:14:55;24.20;;;7.75;;
35442;SDS011;21561;55.654;37.592;2023-01-23T08:17:22;24.05;;;7.85;;
35442;SDS011;21561;55.654;37.592;2023-01-23T08:19:48;24.13;;;8.02;;
35442;SDS011;21561;55.654;37.592;2023-01-23T08:22:15;23.00;;;8.60;;
35442;SDS011;21561;55.654;37.592;2023-01-23T08:24:42;22.58;;;7.65;;
35442;SDS011;21561;55.654;37.592;2023-01-23T08:27:09;23.75;;;7.72;;
35442;SDS011;21561;55.654;37.592;2023-01-23T08:29:38;21.75;;;8.50;;
35442;SDS011;21561;55.654;37.592;2023-01-23T08:32:05;22.52;;;8.40;;
35442;SDS011;21561;55.654;37.592;2023-01-23T08:34:32;22.92;;;8.63;;
35442;SDS011;21561;55.654;37.592;2023-01-23T08:36:59;27.02;;;9.55;;
35442;SDS011;21561;55.654;37.592;2023-01-23T08:39:26;21.60;;;8.13;;
35442;SDS011;21561;55.654;37.592;2023-01-23T08:41:53;21.60;;;7.93;;
35442;SDS011;21561;55.654;37.592;2023-01-23T08:44:20;24.27;;;8.95;;
35442;SDS011;21561;55.654;37.592;2023-01-23T08:46:47;24.95;;;9.23;;
35442;SDS011;21561;55.654;37.592;2023-01-23T08:49:13;21.50;;;7.97;;
35442;SDS011;21561;55.654;37.592;2023-01-23T08:51:40;21.60;;;7.97;;
35442;SDS011;21561;55.654;37.592;2023-01-23T08:54:07;22.70;;;8.20;;
35442;SDS011;21561;55.654;37.592;2023-01-23T08:56:34;23.40;;;8.77;;
35442;SDS011;21561;55.654;37.592;2023-01-23T08:59:01;22.98;;;8.38;;
35442;SDS011;21561;55.654;37.592;2023-01-23T09:01:28;22.33;;;7.80;;
35442;SDS011;21561;55.654;37.592;2023-01-23T09:03:55;25.70;;;9.50;;
35442;SDS011;21561;55.654;37.592;2023-01-23T09:06:22;24.10;;;8.52;;
35442;SDS011;21561;55.654;37.592;2023-01-23T09:08:49;26.60;;;10.13;;
35442;SDS011;21561;55.654;37.592;2023-01-23T09:11:16;23.60;;;8.98;;
35442;SDS011;21561;55.654;37.592;2023-01-23T09:13:44;22.73;;;9.10;;
35442;SDS011;21561;55.654;37.592;2023-01-23T09:16:12;29.23;;;10.15;;
35442;SDS011;21561;55.654;37.592;2023-01-23T09:18:39;24.38;;;9.15;;
35442;SDS011;21561;55.654;37.592;2023-01-23T09:21:07;23.83;;;9.38;;
35442;SDS011;21561;55.654;37.592;2023-01-23T09:23:36;25.25;;;9.80;;
35442;SDS011;21561;55.654;37.592;2023-01-23T09:26:08;28.40;;;10.32;;
35442;SDS011;21561;55.654;37.592;2023-01-23T09:28:37;34.75;;;11.25;;
35442;SDS011;21561;55.654;37.592;2023-01-23T09:31:08;31.80;;;11.57;;
35442;SDS011;21561;55.654;37.592;2023-01-23T09:33:37;31.88;;;11.00;;
35442;SDS011;21561;55.654;37.592;2023-01-23T09:36:04;29.23;;;10.48;;
35442;SDS011;21561;55.654;37.592;2023-01-23T09:38:31;29.50;;;11.80;;
35442;SDS011;21561;55.654;37.592;2023-01-23T09:41:00;29.13;;;11.88;;
35442;SDS011;21561;55.654;37.592;2023-01-23T09:46:54;28.98;;;10.90;;
35442;SDS011;21561;55.654;37.592;2023-01-23T09:52:02;30.63;;;10.85;;
35442;SDS011;21561;55.654;37.592;2023-01-23T09:54:41;27.55;;;11.00;;
35442;SDS011;21561;55.654;37.592;2023-01-23T09:57:23;29.45;;;11.63;;
35442;SDS011;21561;55.654;37.592;2023-01-23T09:59:58;30.08;;;11.13;;
35442;SDS011;21561;55.654;37.592;2023-01-23T10:02:31;28.40;;;11.13;;
35442;SDS011;21561;55.654;37.592;2023-01-23T10:04:59;33.58;;;12.32;;
35442;SDS011;21561;55.654;37.592;2023-01-23T10:13:07;32.10;;;12.20;;
35442;SDS011;21561;55.654;37.592;2023-01-23T10:27:15;36.58;;;11.82;;
35442;SDS011;21561;55.654;37.592;2023-01-23T10:29:49;36.33;;;12.77;;
35442;SDS011;21561;55.654;37.592;2023-01-23T10:32:21;32.22;;;12.70;;
35442;SDS011;21561;55.654;37.592;2023-01-23T10:34:56;32.17;;;12.90;;
35442;SDS011;21561;55.654;37.592;2023-01-23T10:40:04;31.38;;;12.30;;
35442;SDS011;21561;55.654;37.592;2023-01-23T10:42:36;36.30;;;12.48;;
35442;SDS011;21561;55.654;37.592;2023-01-23T10:45:03;31.98;;;11.63;;
35442;SDS011;21561;55.654;37.592;2023-01-23T10:47:35;33.70;;;12.27;;
35442;SDS011;21561;55.654;37.592;2023-01-23T10:50:13;33.63;;;13.60;;
35442;SDS011;21561;55.654;37.592;2023-01-23T10:52:41;29.33;;;12.23;;
35442;SDS011;21561;55.654;37.592;2023-01-23T10:57:53;32.17;;;12.63;;
35442;SDS011;21561;55.654;37.592;2023-01-23T11:00:26;31.27;;;11.90;;
35442;SDS011;21561;55.654;37.592;2023-01-23T11:08:22;33.28;;;13.07;;
35442;SDS011;21561;55.654;37.592;2023-01-23T11:13:42;33.55;;;13.02;;
35442;SDS011;21561;55.654;37.592;2023-01-23T11:16:13;34.78;;;13.38;;
35442;SDS011;21561;55.654;37.592;2023-01-23T11:18:46;33.72;;;12.50;;
35442;SDS011;21561;55.654;37.592;2023-01-23T11:21:22;37.42;;;12.48;;
35442;SDS011;21561;55.654;37.592;2023-01-23T11:24:07;30.17;;;12.98;;
35442;SDS011;21561;55.654;37.592;2023-01-23T11:26:36;35.13;;;12.80;;
35442;SDS011;21561;55.654;37.592;2023-01-23T11:29:18;33.78;;;12.93;;
35442;SDS011;21561;55.654;37.592;2023-01-23T11:31:50;31.73;;;11.82;;
35442;SDS011;21561;55.654;37.592;2023-01-23T11:34:25;35.97;;;13.43;;
35442;SDS011;21561;55.654;37.592;2023-01-23T11:37:05;33.55;;;12.77;;
35442;SDS011;21561;55.654;37.592;2023-01-23T11:42:16;33.03;;;12.80;;
35442;SDS011;21561;55.654;37.592;2023-01-23T11:44:45;33.25;;;12.77;;
35442;SDS011;21561;55.654;37.592;2023-01-23T11:53:00;28.92;;;11.45;;
35442;SDS011;21561;55.654;37.592;2023-01-23T12:09:13;37.30;;;13.43;;
35442;SDS011;21561;55.654;37.592;2023-01-23T12:14:24;33.92;;;12.25;;
35442;SDS011;21561;55.654;37.592;2023-01-23T12:27:49;38.70;;;13.25;;
35442;SDS011;21561;55.654;37.592;2023-01-23T12:41:38;37.75;;;13.95;;
35442;SDS011;21561;55.654;37.592;2023-01-23T12:44:18;35.40;;;12.88;;
35442;SDS011;21561;55.654;37.592;2023-01-23T12:49:36;34.95;;;12.95;;
35442;SDS011;21561;55.654;37.592;2023-01-23T12:52:13;36.60;;;12.93;;
35442;SDS011;21561;55.654;37.592;2023-01-23T12:54:49;34.38;;;13.38;;
35442;SDS011;21561;55.654;37.592;2023-01-23T12:57:20;31.88;;;11.80;;
35442;SDS011;21561;55.654;37.592;2023-01-23T13:08:54;32.65;;;11.85;;
35442;SDS011;21561;55.654;37.592;2023-01-23T13:14:50;30.83;;;12.77;;
35442;SDS011;21561;55.654;37.592;2023-01-23T13:17:43;33.65;;;11.85;;
35442;SDS011;21561;55.654;37.592;2023-01-23T13:20:28;32.30;;;11.55;;
35442;SDS011;21561;55.654;37.592;2023-01-23T13:23:38;32.70;;;12.05;;
35442;SDS011;21561;55.654;37.592;2023-01-23T13:28:44;34.17;;;11.45;;
35442;SDS011;21561;55.654;37.592;2023-01-23T13:33:53;33.60;;;12.65;;
35442;SDS011;21561;55.654;37.592;2023-01-23T13:36:39;34.53;;;12.43;;
35442;SDS011;21561;55.654;37.592;2023-01-23T13:41:51;31.70;;;10.40;;
35442;SDS011;21561;55.654;37.592;2023-01-23T13:47:46;34.67;;;12.75;;
35442;SDS011;21561;55.654;37.592;2023-01-23T13:51:02;34.90;;;12.25;;
35442;SDS011;21561;55.654;37.592;2023-01-23T13:53:56;29.13;;;11.95;;
35442;SDS011;21561;55.654;37.592;2023-01-23T13:56:56;32.25;;;11.90;;
35442;SDS011;21561;55.654;37.592;2023-01-23T13:59:37;28.15;;;10.55;;
35442;SDS011;21561;55.654;37.592;2023-01-23T14:06:04;34.80;;;12.25;;
35442;SDS011;21561;55.654;37.592;2023-01-23T14:08:48;31.77;;;11.75;;
35442;SDS011;21561;55.654;37.592;2023-01-23T14:11:34;29.02;;;10.07;;
35442;SDS011;21561;55.654;37.592;2023-01-23T14:14:17;32.03;;;11.75;;
35442;SDS011;21561;55.654;37.592;2023-01-23T14:17:16;32.35;;;11.90;;
35442;SDS011;21561;55.654;37.592;2023-01-23T14:20:01;31.23;;;11.68;;
35442;SDS011;21561;55.654;37.592;2023-01-23T14:22:52;38.25;;;10.90;;
35442;SDS011;21561;55.654;37.592;2023-01-23T14:25:21;32.40;;;12.45;;
35442;SDS011;21561;55.654;37.592;2023-01-23T14:27:48;35.45;;;12.35;;
35442;SDS011;21561;55.654;37.592;2023-01-23T14:30:29;36.00;;;12.73;;
35442;SDS011;21561;55.654;37.592;2023-01-23T14:32:57;33.72;;;12.52;;
35442;SDS011;21561;55.654;37.592;2023-01-23T14:35:28;33.83;;;11.98;;
35442;SDS011;21561;55.654;37.592;2023-01-23T14:38:01;29.98;;;11.23;;
35442;SDS011;21561;55.654;37.592;2023-01-23T14:40:32;32.47;;;12.10;;
35442;SDS011;21561;55.654;37.592;2023-01-23T14:43:19;33.60;;;12.05;;
35442;SDS011;21561;55.654;37.592;2023-01-23T14:45:58;37.50;;;12.23;;
35442;SDS011;21561;55.654;37.592;2023-01-23T14:48:40;27.42;;;11.40;;
35442;SDS011;21561;55.654;37.592;2023-01-23T14:53:55;31.85;;;12.38;;
35442;SDS011;21561;55.654;37.592;2023-01-23T14:56:47;35.92;;;12.73;;
35442;SDS011;21561;55.654;37.592;2023-01-23T15:11:06;35.85;;;14.25;;
35442;SDS011;21561;55.654;37.592;2023-01-23T15:13:50;37.03;;;13.60;;
35442;SDS011;21561;55.654;37.592;2023-01-23T15:16:21;34.85;;;11.60;;
35442;SDS011;21561;55.654;37.592;2023-01-23T15:21:38;31.88;;;11.35;;
35442;SDS011;21561;55.654;37.592;2023-01-23T15:26:40;34.53;;;11.10;;
35442;SDS011;21561;55.654;37.592;2023-01-23T15:29:21;28.63;;;11.35;;
35442;SDS011;21561;55.654;37.592;2023-01-23T15:31:48;30.25;;;11.15;;
35442;SDS011;21561;55.654;37.592;2023-01-23T15:34:21;30.13;;;11.43;;
35442;SDS011;21561;55.654;37.592;2023-01-23T15:41:55;29.25;;;11.05;;
35442;SDS011;21561;55.654;37.592;2023-01-23T15:44:25;36.40;;;12.52;;
35442;SDS011;21561;55.654;37.592;2023-01-23T15:46:54;32.78;;;11.63;;
35442;SDS011;21561;55.654;37.592;2023-01-23T15:49:22;31.23;;;11.23;;
35442;SDS011;21561;55.654;37.592;2023-01-23T15:51:55;32.55;;;10.85;;
35442;SDS011;21561;55.654;37.592;2023-01-23T15:54:33;30.50;;;11.82;;
35442;SDS011;21561;55.654;37.592;2023-01-23T15:57:02;26.60;;;10.57;;
35442;SDS011;21561;55.654;37.592;2023-01-23T15:59:34;30.95;;;11.45;;
35442;SDS011;21561;55.654;37.592;2023-01-23T16:02:02;27.05;;;9.15;;
35442;SDS011;21561;55.654;37.592;2023-01-23T16:04:30;26.67;;;9.18;;
35442;SDS011;21561;55.654;37.592;2023-01-23T16:06:58;28.02;;;10.38;;
35442;SDS011;21561;55.654;37.592;2023-01-23T16:09:31;25.23;;;9.40;;
35442;SDS011;21561;55.654;37.592;2023-01-23T16:12:03;29.38;;;9.95;;
35442;SDS011;21561;55.654;37.592;2023-01-23T16:14:30;25.88;;;9.80;;
35442;SDS011;21561;55.654;37.592;2023-01-23T16:16:57;28.98;;;9.40;;
35442;SDS011;21561;55.654;37.592;2023-01-23T16:19:41;29.08;;;10.43;;
35442;SDS011;21561;55.654;37.592;2023-01-23T16:22:10;27.35;;;9.57;;
35442;SDS011;21561;55.654;37.592;2023-01-23T16:24:40;26.65;;;9.80;;
35442;SDS011;21561;55.654;37.592;2023-01-23T16:27:10;32.83;;;10.50;;
35442;SDS011;21561;55.654;37.592;2023-01-23T16:29:42;24.27;;;8.68;;
35442;SDS011;21561;55.654;37.592;2023-01-23T16:32:09;28.75;;;10.45;;
35442;SDS011;21561;55.654;37.592;2023-01-23T16:34:37;28.88;;;9.85;;
35442;SDS011;21561;55.654;37.592;2023-01-23T16:37:04;27.13;;;9.18;;
35442;SDS011;21561;55.654;37.592;2023-01-23T16:39:40;32.53;;;9.60;;
35442;SDS011;21561;55.654;37.592;2023-01-23T16:42:19;31.45;;;9.65;;
35442;SDS011;21561;55.654;37.592;2023-01-23T16:44:48;27.83;;;9.32;;
35442;SDS011;21561;55.654;37.592;2023-01-23T16:47:16;26.85;;;10.30;;
35442;SDS011;21561;55.654;37.592;2023-01-23T16:49:46;22.25;;;7.78;;
35442;SDS011;21561;55.654;37.592;2023-01-23T16:52:19;25.77;;;9.05;;
35442;SDS011;21561;55.654;37.592;2023-01-23T16:54:47;24.30;;;8.90;;
35442;SDS011;21561;55.654;37.592;2023-01-23T16:57:18;27.02;;;11.00;;